Date,TemperatureHighF,TemperatureAvgF,TemperatureLowF,DewpointHighF,DewpointAvgF,DewpointLowF,HumidityHigh,HumidityAvg,HumidityLow,PressureMaxIn,PressureMinIn,WindSpeedMaxMPH,WindSpeedAvgMPH,GustSpeedMaxMPH,PrecipitationSumIn
2013-10-1,68,63,59,63,60,57,94,90,83,30.13,30.09,1,0,1,0.00
2013-10-2,86,67,53,64,58,51,96,76,37,30.18,30.09,4,1,8,0.00
2013-10-3,86,65,57,64,50,-100,95,72,37,30.16,30.09,4,1,9,0.00
2013-10-4,87,65,56,65,58,55,95,83,40,30.17,30.13,3,1,6,0.00
2013-10-5,84,68,57,66,61,55,95,81,51,30.16,30.06,3,1,5,0.00
2013-10-6,84,70,60,64,63,58,94,80,49,30.09,29.94,5,1,11,0.00
2013-10-7,72,68,62,70,64,56,91,87,81,30.02,29.86,4,2,10,0.00
2013-10-8,63,61,58,56,49,45,80,65,57,30.21,30.02,4,2,12,0.00
2013-10-9,74,62,51,54,48,44,78,61,43,30.23,30.13,3,-20,10,0.00
2013-10-10,70,43,53,60,-17,-100,84,52,64,30.11,30.00,2,-32,8,0.00
2013-10-11,79,54,61,62,-23,-100,92,43,44,30.01,29.95,3,-128,8,0.00
2013-10-12,76,66,55,62,53,-100,95,77,53,30.11,29.99,2,1,4,0.00
2013-10-13,70,56,63,62,23,-100,91,65,72,30.23,30.11,1,1,5,0.00
2013-10-14,68,48,61,61,15,-100,93,61,74,30.24,30.18,3,-26,10,0.00
2013-10-15,76,49,55,57,14,-100,93,64,35,30.22,30.08,4,-27,14,0.00
2013-10-16,77,64,52,61,57,50,95,79,49,30.10,29.99,4,1,10,0.00
2013-10-17,72,52,59,64,28,-100,94,70,69,30.01,29.90,4,-56,10,0.00
2013-10-18,66,62,54,64,56,52,95,82,62,30.04,29.92,4,1,8,0.00
2013-10-19,69,58,53,60,50,-100,94,82,59,29.99,29.87,4,1,8,0.00
2013-10-20,68,50,42,50,38,-100,95,75,36,30.13,29.94,6,1,11,0.00
2013-10-21,71,53,36,52,44,35,95,75,39,30.18,30.04,3,1,7,0.00
2013-10-22,66,59,51,59,54,49,94,84,66,30.05,29.84,4,1,8,0.00
2013-10-23,69,42,42,57,1,-100,95,45,25,30.05,29.75,7,-39,17,0.00
2013-10-24,62,45,30,42,34,29,95,70,34,30.20,30.05,6,-17,15,0.00
2013-10-25,56,45,32,42,33,28,90,67,34,30.40,30.19,3,1,9,0.00
2013-10-26,60,39,25,35,29,23,94,72,30,30.39,30.12,5,-64,12,0.00
2013-10-27,71,46,36,46,27,-100,94,67,37,30.16,30.08,5,1,11,0.00
2013-10-28,70,49,42,56,37,-100,94,85,57,30.29,30.14,3,1,5,0.00
2013-10-29,75,56,45,55,47,-100,95,79,42,30.36,30.27,3,1,7,0.00
2013-10-30,79,56,46,56,42,-100,95,76,40,30.32,30.19,5,-30,11,0.00
2013-10-31,73,59,50,62,47,-100,95,74,52,30.22,29.96,5,-19,11,0.00